createdAt,value
2022-09-09T00:00:42.715Z,100526.00
2022-09-09T00:03:12.928Z,100535.06
2022-09-09T00:05:44.849Z,100532.78
2022-09-09T00:08:15.995Z,100530.66
2022-09-09T00:10:42.254Z,100525.69
2022-09-09T00:13:16.544Z,100518.25
2022-09-09T00:15:47.674Z,100518.44
2022-09-09T00:18:18.534Z,100516.16
2022-09-09T00:20:48.499Z,100524.53
2022-09-09T00:23:18.768Z,100524.94
2022-09-09T00:25:52.347Z,100515.47
2022-09-09T00:28:21.305Z,100519.34
2022-09-09T00:30:48.060Z,100519.88
2022-09-09T00:33:15.635Z,100510.44
2022-09-09T00:35:44.895Z,100512.28
2022-09-09T00:38:13.619Z,100519.66
2022-09-09T00:40:46.223Z,100513.00
2022-09-09T00:43:22.132Z,100512.75
2022-09-09T00:46:02.217Z,100508.81
2022-09-09T00:48:32.761Z,100508.81
2022-09-09T00:51:03.605Z,100500.09
2022-09-09T00:53:37.022Z,100497.84
2022-09-09T00:56:09.475Z,100489.34
2022-09-09T00:58:35.938Z,100498.22
2022-09-09T01:01:05.691Z,100494.88
2022-09-09T01:03:35.055Z,100499.41
2022-09-09T01:06:02.944Z,100504.56
2022-09-09T01:08:37.603Z,100494.53
2022-09-09T01:11:04.307Z,100495.34
2022-09-09T01:13:31.397Z,100495.34
2022-09-09T01:16:01.747Z,100491.66
2022-09-09T01:18:31.933Z,100497.00
2022-09-09T01:21:03.928Z,100492.69
2022-09-09T01:23:45.122Z,100495.16
2022-09-09T01:26:18.976Z,100488.16
2022-09-09T01:28:46.398Z,100497.84
2022-09-09T01:31:16.072Z,100495.34
2022-09-09T01:33:42.410Z,100492.03
2022-09-09T01:36:10.735Z,100481.34
2022-09-09T01:38:37.493Z,100485.03
2022-09-09T01:41:04.052Z,100481.72
2022-09-09T01:43:31.643Z,100488.91
2022-09-09T01:45:59.981Z,100484.56
2022-09-09T01:48:27.003Z,100483.13
2022-09-09T01:50:53.283Z,100477.78
2022-09-09T01:53:21.142Z,100478.78
2022-09-09T01:55:51.789Z,100482.28
2022-09-09T01:58:23.092Z,100477.31
2022-09-09T02:00:54.603Z,100475.28
2022-09-09T02:03:24.590Z,100472.81
2022-09-09T02:05:54.375Z,100477.97
2022-09-09T02:08:22.122Z,100472.63
2022-09-09T02:10:51.223Z,100477.97
2022-09-09T02:13:37.721Z,100475.28
2022-09-09T02:16:08.130Z,100473.63
2022-09-09T02:18:36.435Z,100471.78
2022-09-09T02:21:03.878Z,100465.81
2022-09-09T02:23:31.048Z,100464.78
2022-09-09T02:25:59.069Z,100466.63
2022-09-09T02:28:27.186Z,100459.63
2022-09-09T02:30:53.615Z,100464.34
2022-09-09T02:33:22.912Z,100467.38
2022-09-09T02:35:50.898Z,100465.09
2022-09-09T02:38:17.478Z,100456.44
2022-09-09T02:40:43.770Z,100465.66
2022-09-09T02:43:10.022Z,100465.84
2022-09-09T02:45:40.512Z,100464.00
2022-09-09T02:48:10.260Z,100466.28
2022-09-09T02:50:42.773Z,100463.63
2022-09-09T02:53:11.212Z,100460.94
2022-09-09T02:55:39.447Z,100462.63
2022-09-09T02:58:07.194Z,100462.25
2022-09-09T03:00:33.815Z,100460.19
2022-09-09T03:03:00.106Z,100462.69
2022-09-09T03:05:26.375Z,100460.66
2022-09-09T03:07:53.969Z,100454.09
2022-09-09T03:10:20.247Z,100456.41
2022-09-09T03:12:46.512Z,100451.91
2022-09-09T03:15:12.879Z,100463.19
2022-09-09T03:17:39.161Z,100455.81
2022-09-09T03:20:05.671Z,100465.50
2022-09-09T03:22:31.951Z,100465.13
2022-09-09T03:24:59.575Z,100459.59
2022-09-09T03:27:25.850Z,100459.19
2022-09-09T03:29:52.141Z,100457.19
2022-09-09T03:32:18.746Z,100459.88
2022-09-09T03:34:45.029Z,100463.38
2022-09-09T03:37:11.310Z,100468.53
2022-09-09T03:39:37.613Z,100466.88
2022-09-09T03:42:05.503Z,100465.22
2022-09-09T03:44:31.794Z,100481.91
2022-09-09T03:46:58.074Z,100481.91
2022-09-09T03:49:24.330Z,100474.53
2022-09-09T03:51:50.603Z,100479.03
2022-09-09T03:54:16.868Z,100477.19
2022-09-09T03:56:43.155Z,100474.53
2022-09-09T03:59:10.779Z,100473.69
2022-09-09T04:01:37.071Z,100471.47
2022-09-09T04:04:03.384Z,100476.81
2022-09-09T04:06:29.663Z,100472.09
2022-09-09T04:08:55.943Z,100472.91
2022-09-09T04:11:22.228Z,100466.56
2022-09-09T04:13:48.721Z,100464.53
2022-09-09T04:16:16.364Z,100467.00
2022-09-09T04:18:43.304Z,100467.66
2022-09-09T04:21:09.836Z,100465.63
2022-09-09T04:23:36.118Z,100460.88
2022-09-09T04:26:03.344Z,100459.88
2022-09-09T04:28:30.587Z,100458.84
2022-09-09T04:30:57.228Z,100464.03
2022-09-09T04:33:25.570Z,100467.53
2022-09-09T04:35:51.855Z,100462.81
2022-09-09T04:38:18.218Z,100461.81
2022-09-09T04:40:44.496Z,100453.78
2022-09-09T04:43:14.277Z,100455.44
2022-09-09T04:45:41.048Z,100448.44
2022-09-09T04:48:07.474Z,100453.78
2022-09-09T04:50:35.105Z,100447.59
2022-09-09T04:53:01.562Z,100443.47
2022-09-09T04:55:27.839Z,100448.16
2022-09-09T04:57:54.106Z,100447.53
2022-09-09T05:00:20.399Z,100445.25
2022-09-09T05:02:46.903Z,100442.13
2022-09-09T05:05:13.197Z,100445.00
2022-09-09T05:07:40.814Z,100443.34
2022-09-09T05:10:07.315Z,100451.53
2022-09-09T05:12:33.607Z,100453.38
2022-09-09T05:14:59.863Z,100442.91
2022-09-09T05:17:26.156Z,100447.44
2022-09-09T05:19:52.423Z,100450.09
2022-09-09T05:22:19.552Z,100449.47
2022-09-09T05:24:47.146Z,100453.13
2022-09-09T05:27:13.420Z,100444.94
2022-09-09T05:29:39.774Z,100457.28
2022-09-09T05:32:06.033Z,100443.09
2022-09-09T05:34:32.308Z,100451.13
2022-09-09T05:36:58.579Z,100446.78
2022-09-09T05:39:24.857Z,100453.78
2022-09-09T05:41:52.467Z,100445.75
2022-09-09T05:44:18.731Z,100447.22
2022-09-09T05:46:45.038Z,100437.34
2022-09-09T05:49:11.401Z,100444.16
2022-09-09T05:51:37.676Z,100449.50
2022-09-09T05:54:04.130Z,100448.31
2022-09-09T05:56:30.403Z,100460.47
2022-09-09T05:58:57.994Z,100460.28
2022-09-09T06:01:25.243Z,100465.22
2022-09-09T06:03:51.876Z,100464.84
2022-09-09T06:06:19.243Z,100465.13
2022-09-09T06:08:45.954Z,100466.19
2022-09-09T06:11:14.282Z,100469.72
2022-09-09T06:13:40.543Z,100471.84
2022-09-09T06:16:09.021Z,100478.06
2022-09-09T06:18:35.332Z,100470.47
2022-09-09T06:21:02.319Z,100474.03
2022-09-09T06:23:28.677Z,100464.41
2022-09-09T06:26:01.779Z,100456.84
2022-09-09T06:28:28.034Z,100463.25
2022-09-09T06:30:57.857Z,100460.81
2022-09-09T06:33:25.562Z,100454.03
2022-09-09T06:35:52.122Z,100456.97
2022-09-09T06:38:18.434Z,100450.41
2022-09-09T06:40:51.247Z,100448.34
2022-09-09T06:43:17.621Z,100448.78
2022-09-09T06:45:43.899Z,100445.53
2022-09-09T06:48:10.191Z,100447.59
2022-09-09T06:50:37.809Z,100456.06
2022-09-09T06:53:04.092Z,100455.47
2022-09-09T06:55:30.367Z,100456.56
2022-09-09T06:57:56.631Z,100448.53
2022-09-09T07:00:22.890Z,100441.97
2022-09-09T07:02:49.171Z,100447.56
2022-09-09T07:05:15.569Z,100442.41
2022-09-09T07:07:43.192Z,100436.03
2022-09-09T07:10:09.685Z,100441.03
2022-09-09T07:12:35.972Z,100442.28
2022-09-09T07:15:02.261Z,100445.81
2022-09-09T07:17:28.592Z,100446.66
2022-09-09T07:19:54.868Z,100458.03
2022-09-09T07:22:21.185Z,100453.50
2022-09-09T07:24:48.813Z,100455.78
2022-09-09T07:27:15.098Z,100448.38
2022-09-09T07:29:41.375Z,100460.34
2022-09-09T07:32:07.650Z,100446.13
2022-09-09T07:34:33.937Z,100445.13
2022-09-09T07:37:00.187Z,100455.63
2022-09-09T07:39:26.482Z,100444.31
2022-09-09T07:41:54.122Z,100452.97
2022-09-09T07:44:21.803Z,100450.72
2022-09-09T07:46:48.115Z,100452.78
2022-09-09T07:49:15.084Z,100454.66
2022-09-09T07:51:42.687Z,100461.03
2022-09-09T07:54:10.011Z,100470.13
2022-09-09T07:56:36.679Z,100475.88
2022-09-09T07:59:04.727Z,100470.72
2022-09-09T08:01:32.146Z,100464.56
2022-09-09T08:03:59.878Z,100460.22
2022-09-09T08:06:26.418Z,100469.31
2022-09-09T08:08:52.745Z,100462.28
2022-09-09T08:11:19.703Z,100461.88
2022-09-09T08:13:48.081Z,100465.19
2022-09-09T08:16:19.583Z,100467.66
2022-09-09T08:18:45.865Z,100475.91
2022-09-09T08:21:12.870Z,100482.28
2022-09-09T08:23:39.539Z,100483.53
2022-09-09T08:26:06.900Z,100484.16
2022-09-09T08:28:33.171Z,100477.97
2022-09-09T08:31:06.069Z,100471.34
2022-09-09T08:33:33.726Z,100484.16
2022-09-09T08:36:00.014Z,100483.75
2022-09-09T08:38:26.272Z,100488.09
2022-09-09T08:40:54.317Z,100492.81
2022-09-09T08:43:22.032Z,100490.56
2022-09-09T08:45:51.312Z,100490.53
2022-09-09T08:48:25.254Z,100484.34
2022-09-09T08:50:53.109Z,100496.94
2022-09-09T08:53:21.205Z,100494.25
2022-09-09T08:55:48.638Z,100488.25
2022-09-09T08:58:16.502Z,100492.41
2022-09-09T09:00:52.838Z,100496.13
2022-09-09T09:03:23.569Z,100485.38
2022-09-09T09:05:56.187Z,100500.47
2022-09-09T09:08:28.115Z,100496.94
2022-09-09T09:10:55.486Z,100498.38
2022-09-09T09:13:27.611Z,100498.78
2022-09-09T09:15:56.454Z,100500.25
2022-09-09T09:18:22.736Z,100506.00
2022-09-09T09:20:51.728Z,100507.28
2022-09-09T09:23:21.700Z,100503.78
2022-09-09T09:25:49.310Z,100507.66
2022-09-09T09:28:17.184Z,100512.03
2022-09-09T09:30:45.089Z,100513.25
2022-09-09T09:33:15.382Z,100511.16
2022-09-09T09:35:43.271Z,100507.44
2022-09-09T09:41:04.459Z,100515.31
2022-09-09T09:43:31.702Z,100505.59
2022-09-09T09:46:16.872Z,100509.94
2022-09-09T09:48:44.397Z,100512.00
2022-09-09T09:51:11.890Z,100518.00
2022-09-09T09:53:39.071Z,100514.28
2022-09-09T09:56:08.829Z,100519.44
2022-09-09T09:58:50.383Z,100515.06
2022-09-09T10:01:21.404Z,100516.72
2022-09-09T10:03:51.562Z,100508.47
2022-09-09T10:06:17.839Z,100507.41
2022-09-09T10:08:45.659Z,100504.88
2022-09-09T10:11:27.571Z,100503.41
2022-09-09T10:13:58.188Z,100509.78
2022-09-09T10:16:28.858Z,100511.03
2022-09-09T10:18:59.654Z,100510.03
2022-09-09T10:21:33.481Z,100518.72
2022-09-09T10:24:20.083Z,100509.22
2022-09-09T10:26:51.303Z,100506.53
2022-09-09T10:29:30.411Z,100513.19
2022-09-09T10:32:03.455Z,100515.47
2022-09-09T10:34:41.363Z,100514.84
2022-09-09T10:37:16.551Z,100517.53
2022-09-09T10:39:43.311Z,100516.53
2022-09-09T10:42:13.372Z,100510.53
2022-09-09T10:44:49.418Z,100508.03
2022-09-09T10:47:29.791Z,100507.84
2022-09-09T10:50:07.998Z,100510.53
2022-09-09T10:52:39.509Z,100516.75
2022-09-09T10:55:10.992Z,100517.38
2022-09-09T10:57:41.390Z,100514.91
2022-09-09T11:00:15.546Z,100511.19
2022-09-09T11:02:42.082Z,100511.22
2022-09-09T11:05:13.903Z,100509.13
2022-09-09T11:07:41.644Z,100506.03
2022-09-09T11:10:17.357Z,100505.41
2022-09-09T11:12:47.315Z,100501.06
2022-09-09T11:15:17.924Z,100502.50
2022-09-09T11:17:47.034Z,100503.13
2022-09-09T11:20:14.211Z,100505.59
2022-09-09T11:22:43.366Z,100512.00
2022-09-09T11:25:15.207Z,100517.56
2022-09-09T11:27:45.542Z,100525.78
2022-09-09T11:30:44.128Z,100513.38
2022-09-09T11:33:20.017Z,100521.81
2022-09-09T11:35:55.461Z,100517.28
2022-09-09T11:38:25.915Z,100525.59
2022-09-09T11:40:55.915Z,100530.34
2022-09-09T11:43:24.766Z,100520.66
2022-09-09T11:45:58.669Z,100519.22
2022-09-09T11:48:29.405Z,100513.69
2022-09-09T11:50:59.771Z,100518.41
2022-09-09T11:53:26.045Z,100519.25
2022-09-09T11:56:06.027Z,100503.28
2022-09-09T11:58:36.011Z,100507.56
2022-09-09T12:01:13.491Z,100514.59
2022-09-09T12:03:42.520Z,100511.50
2022-09-09T12:06:18.043Z,100506.75
2022-09-09T12:08:45.931Z,100508.56
2022-09-09T12:11:12.202Z,100508.38
2022-09-09T12:13:38.487Z,100512.69
2022-09-09T12:16:06.185Z,100504.81
2022-09-09T12:18:33.895Z,100509.28
2022-09-09T12:21:04.786Z,100500.16
2022-09-09T12:23:34.174Z,100508.34
2022-09-09T12:26:18.145Z,100507.31
2022-09-09T12:28:53.858Z,100503.47
2022-09-09T12:31:24.678Z,100495.94
2022-09-09T12:33:51.075Z,100506.44
2022-09-09T12:36:19.635Z,100494.53
2022-09-09T12:38:46.440Z,100498.78
2022-09-09T12:41:22.637Z,100496.22
2022-09-09T12:43:49.223Z,100502.97
2022-09-09T12:46:22.201Z,100492.19
2022-09-09T12:48:49.859Z,100500.75
2022-09-09T12:51:19.335Z,100495.19
2022-09-09T12:53:46.090Z,100506.66
2022-09-09T12:56:19.467Z,100492.00
2022-09-09T12:58:47.665Z,100503.34
2022-09-09T13:01:21.711Z,100499.53
2022-09-09T13:03:48.101Z,100487.41
2022-09-09T13:06:19.827Z,100495.19
2022-09-09T13:08:46.114Z,100476.19
2022-09-09T13:11:14.724Z,100473.56
2022-09-09T13:13:41.897Z,100480.38
2022-09-09T13:16:20.526Z,100469.44
2022-09-09T13:18:46.823Z,100483.81
2022-09-09T13:21:13.114Z,100476.69
2022-09-09T13:23:40.796Z,100468.59
2022-09-09T13:26:20.491Z,100473.63
2022-09-09T13:28:46.836Z,100463.53
2022-09-09T13:31:21.215Z,100462.69
2022-09-09T13:33:47.474Z,100463.22
2022-09-09T13:36:14.396Z,100468.75
2022-09-09T13:38:54.362Z,100463.00
2022-09-09T13:41:22.015Z,100461.06
2022-09-09T13:43:48.950Z,100459.19
2022-09-09T13:46:31.075Z,100463.38
2022-09-09T13:48:57.642Z,100457.25
2022-09-09T13:51:30.367Z,100451.38
2022-09-09T13:53:57.971Z,100457.91
2022-09-09T13:56:24.367Z,100465.50
2022-09-09T13:58:50.651Z,100457.97
2022-09-09T14:01:16.930Z,100454.16
2022-09-09T14:03:43.238Z,100455.81
2022-09-09T14:06:10.800Z,100454.03
2022-09-09T14:08:37.490Z,100448.78
2022-09-09T14:11:05.174Z,100449.75
2022-09-09T14:13:31.465Z,100456.94
2022-09-09T14:15:57.755Z,100456.25
2022-09-09T14:18:24.092Z,100458.25
2022-09-09T14:20:50.367Z,100453.47
2022-09-09T14:23:16.756Z,100447.88
2022-09-09T14:25:43.244Z,100449.28
2022-09-09T14:28:14.307Z,100445.53
2022-09-09T14:30:41.186Z,100455.13
2022-09-09T14:33:08.059Z,100458.53
2022-09-09T14:35:34.490Z,100452.00
2022-09-09T14:38:00.754Z,100450.38
2022-09-09T14:40:27.225Z,100450.72
2022-09-09T14:42:53.732Z,100445.31
2022-09-09T14:45:21.323Z,100444.72
2022-09-09T14:47:47.602Z,100445.41
2022-09-09T14:50:13.963Z,100440.69
2022-09-09T14:52:40.237Z,100431.78
2022-09-09T14:55:07.273Z,100439.13
2022-09-09T14:57:33.543Z,100441.66
2022-09-09T14:59:59.787Z,100446.81
2022-09-09T15:02:27.439Z,100445.50
2022-09-09T15:04:53.744Z,100447.34
2022-09-09T15:07:20.014Z,100448.03
2022-09-09T15:09:46.307Z,100435.50
2022-09-09T15:12:12.569Z,100437.59
2022-09-09T15:14:38.842Z,100443.44
2022-09-09T15:17:05.099Z,100450.94
2022-09-09T15:19:32.714Z,100446.81
2022-09-09T15:21:58.991Z,100458.97
2022-09-09T15:24:25.281Z,100446.84
2022-09-09T15:26:51.543Z,100451.13
2022-09-09T15:29:17.807Z,100447.88
2022-09-09T15:31:44.071Z,100445.66
2022-09-09T15:34:10.352Z,100451.34
2022-09-09T15:36:38.398Z,100444.41
2022-09-09T15:39:05.852Z,100441.09
2022-09-09T15:41:32.329Z,100436.97
2022-09-09T15:43:58.967Z,100440.94
2022-09-09T15:46:27.171Z,100438.03
2022-09-09T15:48:54.739Z,100439.22
2022-09-09T15:51:41.315Z,100440.88
2022-09-09T15:54:09.371Z,100444.63
2022-09-09T15:56:35.666Z,100452.69
2022-09-09T15:59:02.506Z,100449.63
2022-09-09T16:01:29.030Z,100458.53
2022-09-09T16:03:55.386Z,100454.56
2022-09-09T16:06:22.918Z,100452.47
2022-09-09T16:08:49.962Z,100455.31
2022-09-09T16:11:18.270Z,100460.25
2022-09-09T16:13:50.419Z,100466.03
2022-09-09T16:16:18.577Z,100461.69
2022-09-09T16:18:46.274Z,100464.59
2022-09-09T16:21:15.190Z,100471.69
2022-09-09T16:23:41.574Z,100472.59
2022-09-09T16:26:09.298Z,100476.16
2022-09-09T16:28:36.896Z,100481.41
2022-09-09T16:31:04.866Z,100485.78
2022-09-09T16:33:31.584Z,100483.38
2022-09-09T16:35:58.023Z,100484.88
2022-09-09T16:38:24.335Z,100476.63
2022-09-09T16:40:50.615Z,100471.66
2022-09-09T16:43:16.967Z,100464.06
2022-09-09T16:45:45.538Z,100469.25
2022-09-09T16:48:11.838Z,100477.75
2022-09-09T16:50:38.476Z,100486.50
2022-09-09T16:53:04.747Z,100492.09
2022-09-09T16:55:31.031Z,100483.41
2022-09-09T16:57:57.302Z,100483.63
2022-09-09T17:00:23.559Z,100482.19
2022-09-09T17:02:51.210Z,100483.25
2022-09-09T17:05:17.482Z,100487.19
2022-09-09T17:07:43.751Z,100495.09
2022-09-09T17:10:10.005Z,100511.66
2022-09-09T17:12:38.760Z,100498.69
2022-09-09T17:15:08.483Z,100501.66
2022-09-09T17:17:34.726Z,100514.09
2022-09-09T17:20:02.616Z,100523.66
2022-09-09T17:22:28.907Z,100533.00
2022-09-09T17:24:55.179Z,100548.53
2022-09-09T17:27:21.507Z,100549.78
2022-09-09T17:29:47.905Z,100546.53
2022-09-09T17:32:14.211Z,100545.88
2022-09-09T17:34:40.513Z,100550.66
2022-09-09T17:37:08.105Z,100545.88
2022-09-09T17:39:34.510Z,100549.22
2022-09-09T17:42:00.881Z,100547.75
2022-09-09T17:44:27.170Z,100566.75
2022-09-09T17:46:53.452Z,100551.47
2022-09-09T17:49:19.724Z,100556.63
2022-09-09T17:51:45.997Z,100553.72
2022-09-09T17:54:14.892Z,100550.63
2022-09-09T17:56:41.607Z,100553.91
2022-09-09T17:59:08.843Z,100554.75
2022-09-09T18:01:36.013Z,100566.69
2022-09-09T18:04:03.333Z,100560.50
2022-09-09T18:06:32.074Z,100574.13
2022-09-09T18:08:59.115Z,100571.19
2022-09-09T18:11:27.582Z,100565.19
2022-09-09T18:13:55.631Z,100568.31
2022-09-09T18:16:22.553Z,100562.47
2022-09-09T18:18:49.323Z,100567.22
2022-09-09T18:21:15.667Z,100577.13
2022-09-09T18:23:42.449Z,100569.69
2022-09-09T18:26:09.069Z,100564.09
2022-09-09T18:28:36.749Z,100571.50
2022-09-09T18:31:04.938Z,100582.66
2022-09-09T18:33:31.303Z,100592.09
2022-09-09T18:35:57.555Z,100582.81
2022-09-09T18:38:23.867Z,100591.25
2022-09-09T18:40:50.142Z,100595.16
2022-09-09T18:43:16.428Z,100590.00
2022-09-09T18:45:44.060Z,100594.09
2022-09-09T18:48:10.314Z,100605.03
2022-09-09T18:50:36.575Z,100605.22
2022-09-09T18:53:02.861Z,100603.56
2022-09-09T18:55:29.125Z,100600.06
2022-09-09T18:57:55.422Z,100600.91
2022-09-09T19:00:21.691Z,100614.28
2022-09-09T19:02:49.959Z,100613.47
2022-09-09T19:05:16.352Z,100610.34
2022-09-09T19:07:42.655Z,100619.41
2022-09-09T19:10:09.074Z,100622.09
2022-09-09T19:12:35.364Z,100618.16
2022-09-09T19:15:01.664Z,100619.00
2022-09-09T19:17:27.988Z,100620.84
2022-09-09T19:19:55.576Z,100633.59
2022-09-09T19:22:21.840Z,100629.47
2022-09-09T19:24:48.104Z,100632.34
2022-09-09T19:27:14.387Z,100632.53
2022-09-09T19:29:40.730Z,100638.06
2022-09-09T19:32:49.424Z,100648.78
2022-09-09T19:34:53.399Z,100642.84
2022-09-09T19:37:20.996Z,100640.16
2022-09-09T19:39:47.558Z,100637.03
2022-09-09T19:42:13.903Z,100640.53
2022-09-09T19:44:40.158Z,100640.72
2022-09-09T19:47:06.434Z,100642.78
2022-09-09T19:49:32.683Z,100650.16
2022-09-09T19:51:58.963Z,100652.84
2022-09-09T19:54:26.818Z,100658.44
2022-09-09T19:56:53.115Z,100650.78
2022-09-09T19:59:19.463Z,100653.44
2022-09-09T20:01:45.888Z,100657.97
2022-09-09T20:04:12.865Z,100660.47
2022-09-09T20:06:40.043Z,100665.63
2022-09-09T20:09:07.058Z,100674.28
2022-09-09T20:11:35.019Z,100674.72
2022-09-09T20:14:01.542Z,100674.91
2022-09-09T20:16:29.262Z,100675.56
2022-09-09T20:18:56.244Z,100672.69
2022-09-09T20:21:23.698Z,100679.69
2022-09-09T20:23:50.430Z,100678.69
2022-09-09T20:26:18.079Z,100681.38
2022-09-09T20:28:45.808Z,100680.34
2022-09-09T20:31:13.560Z,100676.00
2022-09-09T20:33:40.446Z,100677.66
2022-09-09T20:36:10.159Z,100677.66
2022-09-09T20:38:36.593Z,100672.09
2022-09-09T20:41:03.178Z,100672.09
2022-09-09T20:43:29.511Z,100668.78
2022-09-09T20:46:01.090Z,100672.31
2022-09-09T20:48:27.378Z,100674.97
2022-09-09T20:50:53.642Z,100675.19
2022-09-09T20:53:19.903Z,100670.84
2022-09-09T20:55:46.190Z,100674.53
2022-09-09T20:58:12.434Z,100666.50
2022-09-09T21:00:38.675Z,100669.38
2022-09-09T21:03:06.286Z,100673.91
2022-09-09T21:05:32.563Z,100668.53
2022-09-09T21:07:58.847Z,100684.81
2022-09-09T21:10:25.099Z,100680.91
2022-09-09T21:12:51.366Z,100674.72
2022-09-09T21:15:17.647Z,100678.22
2022-09-09T21:17:43.899Z,100671.84
2022-09-09T21:20:11.531Z,100676.38
2022-09-09T21:22:37.808Z,100674.72
2022-09-09T21:25:04.472Z,100673.06
2022-09-09T21:27:30.791Z,100676.75
2022-09-09T21:29:58.795Z,100664.38
2022-09-09T21:32:25.080Z,100671.81
2022-09-09T21:34:51.336Z,100669.53
2022-09-09T21:37:18.964Z,100668.88
2022-09-09T21:39:45.243Z,100670.72
2022-09-09T21:42:11.519Z,100675.06
2022-09-09T21:44:37.781Z,100673.41
2022-09-09T21:47:04.280Z,100678.56
2022-09-09T21:49:30.566Z,100661.88
2022-09-09T21:51:56.847Z,100662.25
2022-09-09T21:54:24.473Z,100654.41
2022-09-09T21:56:50.742Z,100656.47
2022-09-09T21:59:17.179Z,100655.63
2022-09-09T22:01:43.568Z,100656.66
2022-09-09T22:04:09.886Z,100651.50
2022-09-09T22:06:36.168Z,100648.81
2022-09-09T22:09:02.434Z,100656.03
2022-09-09T22:11:30.111Z,100648.19
2022-09-09T22:13:56.690Z,100648.38
2022-09-09T22:16:23.068Z,100650.41
2022-09-09T22:18:52.747Z,100654.13
2022-09-09T22:21:19.454Z,100660.50
2022-09-09T22:23:50.234Z,100652.84
2022-09-09T22:26:16.498Z,100665.59
2022-09-09T22:28:44.116Z,100661.25
2022-09-09T22:31:10.417Z,100659.59
2022-09-09T22:33:36.705Z,100658.97
2022-09-09T22:36:03.482Z,100656.69
2022-09-09T22:38:29.756Z,100660.72
2022-09-09T22:40:56.017Z,100659.06
2022-09-09T22:43:22.438Z,100658.66
2022-09-09T22:45:50.519Z,100661.50
2022-09-09T22:48:16.773Z,100666.22
2022-09-09T22:50:43.068Z,100668.06
2022-09-09T22:53:10.470Z,100673.63
2022-09-09T22:55:36.739Z,100675.00
2022-09-09T22:58:03.019Z,100672.09
2022-09-09T23:00:29.347Z,100681.50
2022-09-09T23:02:56.970Z,100674.91
2022-09-09T23:05:23.218Z,100678.97
2022-09-09T23:07:49.767Z,100675.00
2022-09-09T23:10:16.114Z,100672.72
2022-09-09T23:12:42.403Z,100680.47
2022-09-09T23:15:09.198Z,100682.69
2022-09-09T23:17:35.482Z,100677.72
2022-09-09T23:20:03.724Z,100677.91
2022-09-09T23:22:30.132Z,100680.13
2022-09-09T23:24:56.447Z,100671.47
2022-09-09T23:27:22.707Z,100677.22
2022-09-09T23:29:48.946Z,100672.03
2022-09-09T23:32:15.319Z,100679.41
2022-09-09T23:34:41.663Z,100677.28
2022-09-09T23:37:09.251Z,100678.31
2022-09-09T23:39:35.571Z,100681.63
2022-09-09T23:42:05.756Z,100684.31
2022-09-09T23:44:32.578Z,100687.16
2022-09-09T23:46:58.832Z,100685.13
2022-09-09T23:49:25.082Z,100685.97
2022-09-09T23:51:51.351Z,100694.00
2022-09-09T23:54:18.962Z,100696.31
2022-09-09T23:56:45.223Z,100693.44
2022-09-09T23:59:11.947Z,100699.44
